GFA320 OBBI-OKKK
Flight info
| Callsign | GFA320 |
|---|---|
| Flight time | 0h 42m |
| Altitude | 30000 |
| Route | BHR A453 DEBTI DEBT3D |
| Aircraft | A320/M-V/N |
Departure
| Time | 2026-04-28 06:41 |
|---|---|
| Airport | Bahrain International Airport (OBBI) |
Arrival
| Time | 2026-04-28 07:24 |
|---|---|
| Airport | Kuwait International Airport (OKKK) |
| Time | Latitude | Longitude | Altitude | Speed | Heading |
|---|---|---|---|---|---|
| 2026-04-28 06:11 | 26.26802 | 50.63065 | 7 ft | 0 kts | 212° |
| 2026-04-28 06:32 | 26.26815 | 50.63074 | 16 ft | 5 kts | 212° |
| 2026-04-28 06:32 | 26.26819 | 50.63077 | 16 ft | 0 kts | 212° |
| 2026-04-28 06:32 | 26.26821 | 50.63078 | 16 ft | 4 kts | 212° |
| 2026-04-28 06:32 | 26.26841 | 50.63092 | 16 ft | 5 kts | 211° |
| 2026-04-28 06:33 | 26.26871 | 50.63112 | 20 ft | 4 kts | 189° |
| 2026-04-28 06:33 | 26.26894 | 50.63090 | 16 ft | 6 kts | 143° |
| 2026-04-28 06:33 | 26.26901 | 50.63084 | 16 ft | 0 kts | 134° |
| 2026-04-28 06:36 | 26.26893 | 50.63094 | 17 ft | 6 kts | 130° |
| 2026-04-28 06:36 | 26.26909 | 50.63148 | 18 ft | 13 kts | 37° |
| 2026-04-28 06:36 | 26.27015 | 50.63129 | 16 ft | 22 kts | 307° |
| 2026-04-28 06:36 | 26.27108 | 50.62966 | 19 ft | 26 kts | 300° |
| 2026-04-28 06:37 | 26.27218 | 50.62793 | 17 ft | 28 kts | 303° |
| 2026-04-28 06:37 | 26.27325 | 50.62605 | 18 ft | 29 kts | 303° |
| 2026-04-28 06:37 | 26.27436 | 50.62412 | 17 ft | 30 kts | 302° |
| 2026-04-28 06:37 | 26.27550 | 50.62212 | 16 ft | 31 kts | 301° |
| 2026-04-28 06:38 | 26.27670 | 50.62011 | 18 ft | 31 kts | 303° |
| 2026-04-28 06:38 | 26.27788 | 50.61807 | 18 ft | 31 kts | 304° |
| 2026-04-28 06:38 | 26.27861 | 50.61689 | 18 ft | 20 kts | 309° |
| 2026-04-28 06:38 | 26.27986 | 50.61670 | 18 ft | 20 kts | 27° |
| 2026-04-28 06:39 | 26.28000 | 50.61780 | 19 ft | 6 kts | 122° |
| 2026-04-28 06:39 | 26.28000 | 50.61781 | 18 ft | 0 kts | 122° |
| 2026-04-28 06:40 | 26.27980 | 50.61816 | 18 ft | 30 kts | 122° |
| 2026-04-28 06:41 | 26.27717 | 50.62270 | 18 ft | 108 kts | 123° |
| 2026-04-28 06:41 | 26.27196 | 50.63172 | 21 ft | 165 kts | 122° |
| 2026-04-28 06:41 | 26.26510 | 50.64358 | 214 ft | 200 kts | 122° |
| 2026-04-28 06:41 | 26.25819 | 50.65745 | 1024 ft | 202 kts | 110° |
| 2026-04-28 06:42 | 26.25653 | 50.67302 | 2169 ft | 207 kts | 82° |
| 2026-04-28 06:42 | 26.26290 | 50.68788 | 3026 ft | 227 kts | 42° |
| 2026-04-28 06:42 | 26.27740 | 50.69522 | 3794 ft | 233 kts | 358° |
| 2026-04-28 06:42 | 26.29213 | 50.69016 | 4734 ft | 225 kts | 316° |
| 2026-04-28 06:43 | 26.30088 | 50.67606 | 5654 ft | 229 kts | 294° |
| 2026-04-28 06:43 | 26.30850 | 50.65965 | 6414 ft | 239 kts | 295° |
| 2026-04-28 06:43 | 26.31619 | 50.64374 | 7650 ft | 230 kts | 296° |
| 2026-04-28 06:43 | 26.32435 | 50.62830 | 8660 ft | 235 kts | 303° |
| 2026-04-28 06:44 | 26.33565 | 50.61478 | 9558 ft | 244 kts | 317° |
| 2026-04-28 06:44 | 26.35025 | 50.60451 | 10366 ft | 252 kts | 329° |
| 2026-04-28 06:44 | 26.36668 | 50.59691 | 11145 ft | 259 kts | 336° |
| 2026-04-28 06:44 | 26.38403 | 50.59072 | 11913 ft | 265 kts | 339° |
| 2026-04-28 06:45 | 26.40191 | 50.58496 | 12673 ft | 269 kts | 339° |
| 2026-04-28 06:45 | 26.42006 | 50.57920 | 13430 ft | 273 kts | 339° |
| 2026-04-28 06:45 | 26.43846 | 50.57328 | 14127 ft | 277 kts | 338° |
| 2026-04-28 06:45 | 26.45700 | 50.56723 | 14847 ft | 278 kts | 338° |
| 2026-04-28 06:46 | 26.47561 | 50.56110 | 15572 ft | 279 kts | 338° |
| 2026-04-28 06:46 | 26.49431 | 50.55490 | 16278 ft | 281 kts | 337° |
| 2026-04-28 06:46 | 26.51310 | 50.54865 | 16977 ft | 283 kts | 337° |
| 2026-04-28 06:46 | 26.53208 | 50.54232 | 17650 ft | 286 kts | 337° |
| 2026-04-28 06:47 | 26.55122 | 50.53595 | 18295 ft | 288 kts | 336° |
| 2026-04-28 06:47 | 26.57052 | 50.52952 | 18870 ft | 290 kts | 336° |
| 2026-04-28 06:47 | 26.58992 | 50.52306 | 19444 ft | 292 kts | 336° |
| 2026-04-28 06:47 | 26.60937 | 50.51658 | 19996 ft | 294 kts | 336° |
| 2026-04-28 06:48 | 26.62920 | 50.50997 | 20556 ft | 297 kts | 336° |
| 2026-04-28 06:48 | 26.64909 | 50.50333 | 21076 ft | 300 kts | 335° |
| 2026-04-28 06:48 | 26.66917 | 50.49663 | 21603 ft | 302 kts | 335° |
| 2026-04-28 06:48 | 26.68927 | 50.48958 | 22112 ft | 302 kts | 330° |
| 2026-04-28 06:49 | 26.70742 | 50.47907 | 22603 ft | 295 kts | 317° |
| 2026-04-28 06:49 | 26.72301 | 50.46460 | 23082 ft | 290 kts | 309° |
| 2026-04-28 06:49 | 26.73760 | 50.44886 | 23555 ft | 293 kts | 309° |
| 2026-04-28 06:49 | 26.75245 | 50.43308 | 23933 ft | 296 kts | 309° |
| 2026-04-28 06:50 | 26.76748 | 50.41719 | 24319 ft | 299 kts | 309° |
| 2026-04-28 06:50 | 26.78266 | 50.40116 | 24698 ft | 302 kts | 309° |
| 2026-04-28 06:50 | 26.79798 | 50.38497 | 25062 ft | 304 kts | 309° |
| 2026-04-28 06:50 | 26.81341 | 50.36866 | 25442 ft | 306 kts | 309° |
| 2026-04-28 06:51 | 26.82896 | 50.35219 | 25719 ft | 312 kts | 308° |
| 2026-04-28 06:51 | 26.84497 | 50.33517 | 25829 ft | 323 kts | 309° |
| 2026-04-28 06:51 | 26.86161 | 50.31745 | 25826 ft | 338 kts | 309° |
| 2026-04-28 06:51 | 26.87867 | 50.29941 | 26002 ft | 338 kts | 309° |
| 2026-04-28 06:52 | 26.89602 | 50.28109 | 26030 ft | 350 kts | 309° |
| 2026-04-28 06:52 | 26.91402 | 50.26193 | 26033 ft | 364 kts | 309° |
| 2026-04-28 06:52 | 26.93274 | 50.24200 | 26031 ft | 378 kts | 309° |
| 2026-04-28 06:52 | 26.95216 | 50.22133 | 26034 ft | 392 kts | 310° |
| 2026-04-28 06:53 | 26.97229 | 50.19994 | 26032 ft | 406 kts | 310° |
| 2026-04-28 06:53 | 26.99304 | 50.17790 | 26030 ft | 415 kts | 310° |
| 2026-04-28 06:53 | 27.01404 | 50.15565 | 26026 ft | 414 kts | 310° |
| 2026-04-28 06:53 | 27.03494 | 50.13350 | 26030 ft | 414 kts | 310° |
| 2026-04-28 06:54 | 27.05497 | 50.11044 | 26026 ft | 410 kts | 304° |
| 2026-04-28 06:54 | 27.07335 | 50.08612 | 26026 ft | 409 kts | 304° |
| 2026-04-28 06:54 | 27.09181 | 50.06181 | 26026 ft | 409 kts | 304° |
| 2026-04-28 06:54 | 27.11033 | 50.03752 | 26023 ft | 409 kts | 304° |
| 2026-04-28 06:55 | 27.12884 | 50.01322 | 26024 ft | 409 kts | 304° |
| 2026-04-28 06:55 | 27.14731 | 49.98896 | 26023 ft | 408 kts | 304° |
| 2026-04-28 06:55 | 27.16571 | 49.96475 | 26024 ft | 408 kts | 303° |
| 2026-04-28 06:55 | 27.18368 | 49.94110 | 26021 ft | 408 kts | 303° |
| 2026-04-28 06:56 | 27.20193 | 49.91706 | 26023 ft | 408 kts | 303° |
| 2026-04-28 06:56 | 27.22032 | 49.89282 | 26023 ft | 407 kts | 303° |
| 2026-04-28 06:56 | 27.23869 | 49.86859 | 26021 ft | 407 kts | 303° |
| 2026-04-28 06:56 | 27.25704 | 49.84438 | 26020 ft | 406 kts | 303° |
| 2026-04-28 06:57 | 27.27535 | 49.82020 | 26022 ft | 406 kts | 303° |
| 2026-04-28 06:57 | 27.29367 | 49.79600 | 26023 ft | 406 kts | 303° |
| 2026-04-28 06:57 | 27.31195 | 49.77183 | 26024 ft | 406 kts | 303° |
| 2026-04-28 06:57 | 27.33023 | 49.74764 | 26023 ft | 406 kts | 303° |
| 2026-04-28 06:58 | 27.34852 | 49.72344 | 26020 ft | 406 kts | 303° |
| 2026-04-28 06:58 | 27.36680 | 49.69923 | 26020 ft | 406 kts | 303° |
| 2026-04-28 06:58 | 27.38501 | 49.67510 | 26025 ft | 406 kts | 303° |
| 2026-04-28 06:58 | 27.40328 | 49.65087 | 26024 ft | 405 kts | 303° |
| 2026-04-28 06:59 | 27.42154 | 49.62664 | 26021 ft | 405 kts | 302° |
| 2026-04-28 06:59 | 27.43977 | 49.60245 | 26019 ft | 405 kts | 302° |
| 2026-04-28 06:59 | 27.45799 | 49.57825 | 26020 ft | 405 kts | 302° |
| 2026-04-28 06:59 | 27.47658 | 49.55428 | 26021 ft | 409 kts | 306° |
| 2026-04-28 07:00 | 27.49728 | 49.53261 | 26017 ft | 415 kts | 313° |
| 2026-04-28 07:00 | 27.52031 | 49.51213 | 26018 ft | 417 kts | 314° |
| 2026-04-28 07:00 | 27.54308 | 49.49184 | 26017 ft | 417 kts | 314° |
| 2026-04-28 07:00 | 27.56580 | 49.47150 | 26020 ft | 417 kts | 314° |
| 2026-04-28 07:01 | 27.58848 | 49.45116 | 26019 ft | 417 kts | 314° |
| 2026-04-28 07:01 | 27.61114 | 49.43081 | 26019 ft | 417 kts | 314° |
| 2026-04-28 07:01 | 27.63411 | 49.41019 | 26019 ft | 417 kts | 314° |
| 2026-04-28 07:01 | 27.65679 | 49.38982 | 26021 ft | 417 kts | 314° |
| 2026-04-28 07:02 | 27.67941 | 49.36949 | 26018 ft | 417 kts | 314° |
| 2026-04-28 07:02 | 27.70214 | 49.34907 | 26019 ft | 417 kts | 314° |
| 2026-04-28 07:02 | 27.72481 | 49.32868 | 26015 ft | 416 kts | 314° |
| 2026-04-28 07:02 | 27.74747 | 49.30829 | 26021 ft | 416 kts | 314° |
| 2026-04-28 07:03 | 27.77013 | 49.28788 | 26017 ft | 417 kts | 314° |
| 2026-04-28 07:03 | 27.79246 | 49.26777 | 26016 ft | 417 kts | 314° |
| 2026-04-28 07:03 | 27.81543 | 49.24707 | 26017 ft | 417 kts | 314° |
| 2026-04-28 07:03 | 27.83809 | 49.22664 | 26014 ft | 417 kts | 314° |
| 2026-04-28 07:04 | 27.86072 | 49.20622 | 26019 ft | 417 kts | 314° |
| 2026-04-28 07:04 | 27.88455 | 49.18710 | 26019 ft | 423 kts | 321° |
| 2026-04-28 07:04 | 27.91013 | 49.17031 | 26017 ft | 425 kts | 322° |
| 2026-04-28 07:04 | 27.93571 | 49.15363 | 26016 ft | 425 kts | 322° |
| 2026-04-28 07:05 | 27.96101 | 49.13705 | 26017 ft | 425 kts | 322° |
| 2026-04-28 07:05 | 27.98687 | 49.12007 | 26012 ft | 425 kts | 322° |
| 2026-04-28 07:05 | 28.01206 | 49.10352 | 25849 ft | 423 kts | 322° |
| 2026-04-28 07:05 | 28.03751 | 49.08679 | 25285 ft | 425 kts | 322° |
| 2026-04-28 07:06 | 28.06321 | 49.06983 | 24459 ft | 430 kts | 323° |
| 2026-04-28 07:06 | 28.08929 | 49.05259 | 23471 ft | 438 kts | 324° |
| 2026-04-28 07:06 | 28.11591 | 49.03501 | 22192 ft | 447 kts | 324° |
| 2026-04-28 07:06 | 28.14306 | 49.01711 | 20935 ft | 456 kts | 324° |
| 2026-04-28 07:07 | 28.17052 | 48.99906 | 20060 ft | 455 kts | 324° |
| 2026-04-28 07:07 | 28.19776 | 48.98118 | 19327 ft | 450 kts | 324° |
| 2026-04-28 07:07 | 28.22474 | 48.96344 | 18598 ft | 446 kts | 324° |
| 2026-04-28 07:07 | 28.25152 | 48.94580 | 17851 ft | 442 kts | 324° |
| 2026-04-28 07:08 | 28.27803 | 48.92776 | 17071 ft | 435 kts | 321° |
| 2026-04-28 07:08 | 28.30210 | 48.90739 | 16302 ft | 427 kts | 315° |
| 2026-04-28 07:08 | 28.32458 | 48.88563 | 15537 ft | 424 kts | 315° |
| 2026-04-28 07:08 | 28.33940 | 48.87139 | 15149 ft | 419 kts | 315° |
| 2026-04-28 07:09 | 28.36133 | 48.85043 | 14893 ft | 404 kts | 315° |
| 2026-04-28 07:09 | 28.38232 | 48.83043 | 14810 ft | 385 kts | 315° |
| 2026-04-28 07:09 | 28.40225 | 48.81139 | 14800 ft | 365 kts | 315° |
| 2026-04-28 07:09 | 28.42117 | 48.79327 | 14804 ft | 347 kts | 314° |
| 2026-04-28 07:10 | 28.43912 | 48.77606 | 14798 ft | 329 kts | 314° |
| 2026-04-28 07:10 | 28.45619 | 48.75966 | 14803 ft | 313 kts | 314° |
| 2026-04-28 07:10 | 28.47239 | 48.74411 | 14801 ft | 297 kts | 314° |
| 2026-04-28 07:10 | 28.48770 | 48.72939 | 14803 ft | 281 kts | 313° |
| 2026-04-28 07:11 | 28.50220 | 48.71546 | 14801 ft | 265 kts | 313° |
| 2026-04-28 07:11 | 28.51618 | 48.70200 | 14808 ft | 265 kts | 313° |
| 2026-04-28 07:11 | 28.53031 | 48.68836 | 14804 ft | 269 kts | 313° |
| 2026-04-28 07:11 | 28.54467 | 48.67449 | 14805 ft | 273 kts | 313° |
| 2026-04-28 07:12 | 28.55927 | 48.66041 | 14801 ft | 277 kts | 313° |
| 2026-04-28 07:12 | 28.57410 | 48.64610 | 14806 ft | 281 kts | 313° |
| 2026-04-28 07:12 | 28.58913 | 48.63160 | 14804 ft | 285 kts | 313° |
| 2026-04-28 07:12 | 28.60436 | 48.61690 | 14798 ft | 289 kts | 313° |
| 2026-04-28 07:13 | 28.61985 | 48.60194 | 14780 ft | 294 kts | 313° |
| 2026-04-28 07:13 | 28.63555 | 48.58677 | 14756 ft | 298 kts | 313° |
| 2026-04-28 07:13 | 28.65151 | 48.57134 | 14736 ft | 303 kts | 314° |
| 2026-04-28 07:13 | 28.66768 | 48.55571 | 14706 ft | 307 kts | 314° |
| 2026-04-28 07:14 | 28.68382 | 48.54010 | 14681 ft | 311 kts | 314° |
| 2026-04-28 07:14 | 28.70061 | 48.52386 | 14657 ft | 314 kts | 313° |
| 2026-04-28 07:14 | 28.71712 | 48.50738 | 14629 ft | 317 kts | 312° |
| 2026-04-28 07:14 | 28.73362 | 48.49047 | 14602 ft | 320 kts | 312° |
| 2026-04-28 07:15 | 28.75003 | 48.47357 | 14576 ft | 324 kts | 312° |
| 2026-04-28 07:15 | 28.76702 | 48.45611 | 14549 ft | 327 kts | 312° |
| 2026-04-28 07:15 | 28.78423 | 48.43848 | 14197 ft | 341 kts | 313° |
| 2026-04-28 07:15 | 28.80240 | 48.42000 | 13638 ft | 360 kts | 313° |
| 2026-04-28 07:16 | 28.82188 | 48.40094 | 13023 ft | 378 kts | 316° |
| 2026-04-28 07:16 | 28.84258 | 48.38241 | 12419 ft | 378 kts | 319° |
| 2026-04-28 07:16 | 28.86351 | 48.36445 | 11741 ft | 377 kts | 318° |
| 2026-04-28 07:16 | 28.88364 | 48.34546 | 11214 ft | 369 kts | 313° |
| 2026-04-28 07:17 | 28.90073 | 48.32493 | 10810 ft | 346 kts | 306° |
| 2026-04-28 07:17 | 28.91445 | 48.30391 | 10444 ft | 325 kts | 301° |
| 2026-04-28 07:17 | 28.92925 | 48.28420 | 9735 ft | 333 kts | 311° |
| 2026-04-28 07:17 | 28.94445 | 48.26454 | 9442 ft | 324 kts | 306° |
| 2026-04-28 07:18 | 28.95822 | 48.24499 | 9314 ft | 310 kts | 303° |
| 2026-04-28 07:18 | 28.97082 | 48.22536 | 8988 ft | 304 kts | 301° |
| 2026-04-28 07:18 | 28.98275 | 48.20573 | 8591 ft | 297 kts | 299° |
| 2026-04-28 07:18 | 28.99369 | 48.18650 | 8191 ft | 278 kts | 298° |
| 2026-04-28 07:19 | 29.00391 | 48.16879 | 7793 ft | 257 kts | 298° |
| 2026-04-28 07:19 | 29.01396 | 48.15259 | 7299 ft | 243 kts | 301° |
| 2026-04-28 07:19 | 29.02395 | 48.13761 | 6745 ft | 233 kts | 302° |
| 2026-04-28 07:19 | 29.03409 | 48.12336 | 6100 ft | 230 kts | 303° |
| 2026-04-28 07:20 | 29.04427 | 48.10958 | 5502 ft | 223 kts | 305° |
| 2026-04-28 07:20 | 29.05485 | 48.09694 | 4954 ft | 217 kts | 309° |
| 2026-04-28 07:20 | 29.06572 | 48.08575 | 4584 ft | 202 kts | 314° |
| 2026-04-28 07:20 | 29.07690 | 48.07671 | 4190 ft | 194 kts | 320° |
| 2026-04-28 07:21 | 29.08856 | 48.06829 | 3751 ft | 204 kts | 324° |
| 2026-04-28 07:21 | 29.10124 | 48.06021 | 3316 ft | 213 kts | 326° |
| 2026-04-28 07:21 | 29.11432 | 48.05174 | 2679 ft | 219 kts | 328° |
| 2026-04-28 07:22 | 29.13782 | 48.03820 | 1805 ft | 210 kts | 334° |
| 2026-04-28 07:22 | 29.15053 | 48.03098 | 1503 ft | 195 kts | 335° |
| 2026-04-28 07:22 | 29.16254 | 48.02456 | 1298 ft | 187 kts | 336° |
| 2026-04-28 07:22 | 29.17418 | 48.01857 | 1184 ft | 178 kts | 336° |
| 2026-04-28 07:23 | 29.18523 | 48.01274 | 1003 ft | 174 kts | 337° |
| 2026-04-28 07:23 | 29.19667 | 48.00687 | 704 ft | 182 kts | 336° |
| 2026-04-28 07:23 | 29.20813 | 48.00079 | 389 ft | 181 kts | 336° |
| 2026-04-28 07:23 | 29.21928 | 47.99501 | 208 ft | 164 kts | 336° |
| 2026-04-28 07:24 | 29.22682 | 47.99105 | 202 ft | 75 kts | 336° |
| 2026-04-28 07:24 | 29.22964 | 47.98948 | 186 ft | 38 kts | 333° |
| 2026-04-28 07:24 | 29.23193 | 47.98767 | 183 ft | 42 kts | 312° |
| 2026-04-28 07:24 | 29.23376 | 47.98492 | 179 ft | 45 kts | 317° |
| 2026-04-28 07:25 | 29.23585 | 47.98367 | 175 ft | 34 kts | 335° |
| 2026-04-28 07:25 | 29.23806 | 47.98248 | 172 ft | 36 kts | 336° |
| 2026-04-28 07:25 | 29.23859 | 47.98222 | 171 ft | 1 kts | 337° |
| 2026-04-28 07:25 | 29.23900 | 47.98198 | 171 ft | 11 kts | 326° |
| 2026-04-28 07:26 | 29.23911 | 47.98109 | 169 ft | 14 kts | 250° |
| 2026-04-28 07:26 | 29.23873 | 47.98009 | 169 ft | 14 kts | 230° |
| 2026-04-28 07:26 | 29.23822 | 47.97901 | 168 ft | 17 kts | 244° |
| 2026-04-28 07:26 | 29.23771 | 47.97765 | 166 ft | 20 kts | 249° |
| 2026-04-28 07:27 | 29.23714 | 47.97603 | 164 ft | 24 kts | 246° |
| 2026-04-28 07:27 | 29.23691 | 47.97456 | 161 ft | 14 kts | 308° |
| 2026-04-28 07:27 | 29.23758 | 47.97418 | 160 ft | 14 kts | 330° |
| 2026-04-28 07:27 | 29.23805 | 47.97300 | 158 ft | 12 kts | 249° |
| 2026-04-28 07:28 | 29.23803 | 47.97295 | 158 ft | 0 kts | 248° |